Time;durP1;ratioP1;P1;durP2;ratioP2;P2;SDS_P1;SDS_P2;PMS_P1;PMS_P2;Temp;Humidity;BMP_temperature;BMP_pressure;BME280_temperature;BME280_humidity;BME280_pressure;Samples;Min_cycle;Max_cycle;Signal;HPM_P1;HPM_P2
2023/03/03 00:01:16;;;;;;;35.93;20.20;;;3.10;99.90;;;;;;5137173;27;20190;-69
2023/03/03 00:03:42;;;;;;;36.00;20.47;;;3.10;99.90;;;;;;5137091;27;20209;-68
2023/03/03 00:06:10;;;;;;;36.27;20.87;;;3.00;99.90;;;;;;5137148;27;20166;-69
2023/03/03 00:08:36;;;;;;;37.10;21.47;;;3.00;99.90;;;;;;5136741;27;20641;-68
2023/03/03 00:11:05;;;;;;;35.50;20.50;;;3.00;99.90;;;;;;5136929;27;20173;-69
2023/03/03 00:13:31;;;;;;;43.17;21.70;;;2.90;99.90;;;;;;5136703;27;20249;-69
2023/03/03 00:16:20;;;;;;;37.23;20.73;;;2.90;99.90;;;;;;5136760;27;20628;-68
2023/03/03 00:18:47;;;;;;;36.40;20.23;;;2.90;99.90;;;;;;5137050;27;20244;-69
2023/03/03 00:21:31;;;;;;;33.43;20.77;;;2.90;99.90;;;;;;5136676;27;20614;-69
2023/03/03 00:24:14;;;;;;;35.93;19.93;;;2.80;99.90;;;;;;5136308;27;20313;-69
2023/03/03 00:26:43;;;;;;;35.33;19.87;;;2.80;99.90;;;;;;5136736;27;20177;-69
2023/03/03 00:29:27;;;;;;;37.93;21.20;;;2.80;99.90;;;;;;5135498;27;20307;-69
2023/03/03 00:31:53;;;;;;;35.83;19.93;;;2.80;99.90;;;;;;5136570;27;20625;-69
2023/03/03 00:34:24;;;;;;;33.67;20.07;;;2.70;99.90;;;;;;5136602;27;20171;-69
2023/03/03 00:36:54;;;;;;;31.77;18.53;;;2.70;99.90;;;;;;5136299;27;20179;-70
2023/03/03 00:39:32;;;;;;;31.17;20.07;;;2.70;99.90;;;;;;5136500;27;20215;-69
2023/03/03 00:41:59;;;;;;;39.90;21.83;;;2.60;99.90;;;;;;5136483;27;20185;-69
2023/03/03 00:44:47;;;;;;;32.43;19.90;;;2.60;99.90;;;;;;5136300;27;20676;-69
2023/03/03 00:47:37;;;;;;;35.13;19.87;;;2.60;99.90;;;;;;5136250;27;20162;-70
2023/03/03 00:50:05;;;;;;;63.60;21.97;;;2.60;99.90;;;;;;5136237;27;20188;-68
2023/03/03 00:52:54;;;;;;;58.67;21.90;;;2.50;99.90;;;;;;5135979;27;20170;-68
2023/03/03 00:55:19;;;;;;;34.43;20.10;;;2.50;99.90;;;;;;5136198;27;20170;-68
2023/03/03 00:57:45;;;;;;;35.13;21.03;;;2.50;99.90;;;;;;5136305;27;20568;-69
2023/03/03 01:00:12;;;;;;;39.17;20.30;;;2.40;99.90;;;;;;5135978;27;20174;-68
2023/03/03 01:02:37;;;;;;;34.97;20.50;;;2.40;99.90;;;;;;5135863;27;20285;-68
2023/03/03 01:05:03;;;;;;;38.67;21.10;;;2.40;99.90;;;;;;5135476;27;20302;-69
2023/03/03 01:07:28;;;;;;;34.30;20.20;;;2.30;99.90;;;;;;5135839;27;20174;-68
2023/03/03 01:09:54;;;;;;;36.50;21.70;;;2.30;99.90;;;;;;5136039;27;20209;-69
2023/03/03 01:12:20;;;;;;;34.33;21.50;;;2.40;99.90;;;;;;5135582;27;20166;-69
2023/03/03 01:14:48;;;;;;;39.60;22.40;;;2.30;99.90;;;;;;5135788;27;20273;-68
2023/03/03 01:17:13;;;;;;;40.27;21.93;;;2.30;99.90;;;;;;5135696;27;20205;-69
2023/03/03 01:19:39;;;;;;;38.47;22.07;;;2.30;99.90;;;;;;5135207;27;20678;-68
2023/03/03 01:22:04;;;;;;;38.60;22.60;;;2.30;99.90;;;;;;5135173;27;20226;-68
2023/03/03 01:24:30;;;;;;;36.67;20.17;;;2.30;99.90;;;;;;5135478;27;20216;-68
2023/03/03 01:26:56;;;;;;;41.70;23.30;;;2.20;99.90;;;;;;5135612;27;20177;-68
2023/03/03 01:29:21;;;;;;;40.17;22.40;;;2.20;99.90;;;;;;5135482;27;20697;-68
2023/03/03 01:31:47;;;;;;;38.60;22.87;;;2.20;99.90;;;;;;5135385;27;20163;-68
2023/03/03 01:34:12;;;;;;;38.67;22.97;;;2.20;99.90;;;;;;5135001;27;20224;-69
2023/03/03 01:36:38;;;;;;;45.00;24.23;;;2.10;99.90;;;;;;5135069;27;20540;-69
2023/03/03 01:39:03;;;;;;;38.23;22.00;;;2.20;99.90;;;;;;5135455;27;20186;-69
2023/03/03 01:41:34;;;;;;;46.30;24.37;;;2.10;99.90;;;;;;5134963;27;20206;-69
2023/03/03 01:44:00;;;;;;;43.13;23.53;;;2.10;99.90;;;;;;5135202;27;20191;-69
2023/03/03 01:46:46;;;;;;;43.47;25.33;;;2.10;99.90;;;;;;5135040;27;20170;-69
2023/03/03 01:49:38;;;;;;;42.77;23.43;;;2.10;99.90;;;;;;5134598;27;20308;-69
2023/03/03 01:52:13;;;;;;;41.90;22.87;;;2.10;99.90;;;;;;5134365;27;20175;-68
2023/03/03 01:54:47;;;;;;;46.60;24.87;;;2.10;99.90;;;;;;5135099;27;20174;-69
2023/03/03 01:57:27;;;;;;;46.20;24.73;;;2.10;99.90;;;;;;5135455;27;20167;-68
2023/03/03 01:59:56;;;;;;;48.53;25.70;;;2.00;99.90;;;;;;5134797;27;20655;-68
2023/03/03 02:02:23;;;;;;;44.93;25.27;;;2.00;99.90;;;;;;5134599;27;20193;-68
2023/03/03 02:04:49;;;;;;;44.90;25.53;;;2.00;99.90;;;;;;5134368;27;20251;-68
2023/03/03 02:07:16;;;;;;;51.87;26.77;;;2.00;99.90;;;;;;5134921;27;20181;-68
2023/03/03 02:09:50;;;;;;;49.30;25.67;;;2.00;99.90;;;;;;5134528;27;20634;-68
2023/03/03 02:12:18;;;;;;;43.93;24.47;;;2.00;99.90;;;;;;5134367;27;20169;-68
2023/03/03 02:14:43;;;;;;;46.03;25.03;;;2.10;99.90;;;;;;5134768;27;20199;-68
2023/03/03 02:17:10;;;;;;;44.43;24.23;;;2.10;99.90;;;;;;5134748;27;20175;-69
2023/03/03 02:19:58;;;;;;;45.03;26.20;;;2.20;99.90;;;;;;5134372;27;20648;-68
2023/03/03 02:22:52;;;;;;;48.43;26.10;;;2.20;99.90;;;;;;5134246;27;20290;-68
2023/03/03 02:25:35;;;;;;;46.63;25.70;;;2.20;99.90;;;;;;5087773;27;20263;-68
2023/03/03 02:28:02;;;;;;;48.40;25.30;;;2.40;99.90;;;;;;5134532;27;20629;-68
2023/03/03 02:30:27;;;;;;;51.13;27.93;;;2.40;99.90;;;;;;5134570;27;20296;-68
2023/03/03 02:32:53;;;;;;;54.00;25.60;;;2.40;99.90;;;;;;5133880;27;20701;-69
2023/03/03 02:35:29;;;;;;;56.03;29.23;;;2.50;99.90;;;;;;5134142;27;20170;-67
2023/03/03 02:38:18;;;;;;;58.03;27.10;;;2.50;99.90;;;;;;5131271;27;20170;-68
2023/03/03 02:40:57;;;;;;;52.37;25.43;;;2.40;99.90;;;;;;5134407;27;20166;-68
2023/03/03 02:43:28;;;;;;;54.40;27.33;;;2.30;99.90;;;;;;5134293;27;20169;-68
2023/03/03 02:45:53;;;;;;;55.80;29.90;;;2.30;99.90;;;;;;5134321;27;20213;-68
2023/03/03 02:48:19;;;;;;;53.30;27.97;;;2.30;99.90;;;;;;5134005;27;20632;-68
2023/03/03 02:50:45;;;;;;;59.20;28.70;;;2.20;99.90;;;;;;5134285;28;20162;-68
2023/03/03 02:53:10;;;;;;;52.97;29.57;;;2.20;99.90;;;;;;5138948;27;20166;-68
2023/03/03 02:55:36;;;;;;;47.93;26.43;;;2.20;99.90;;;;;;5141092;27;20170;-68
2023/03/03 02:58:01;;;;;;;53.90;29.57;;;2.30;99.90;;;;;;5140732;27;20199;-69
2023/03/03 03:00:27;;;;;;;50.97;28.87;;;2.20;99.90;;;;;;5140984;27;20191;-69
2023/03/03 03:02:53;;;;;;;54.20;29.60;;;2.20;99.90;;;;;;5140408;27;20249;-69
2023/03/03 03:05:18;;;;;;;57.30;29.83;;;2.20;99.90;;;;;;5140869;27;20687;-68
2023/03/03 03:07:44;;;;;;;55.43;28.77;;;2.20;99.90;;;;;;5141025;27;20295;-67
2023/03/03 03:10:10;;;;;;;52.00;27.67;;;2.20;99.90;;;;;;5140746;27;20594;-68
2023/03/03 03:12:36;;;;;;;53.00;27.03;;;2.20;99.90;;;;;;5140624;27;20158;-68
2023/03/03 03:15:01;;;;;;;51.43;28.80;;;2.20;99.90;;;;;;5140805;27;20564;-68
2023/03/03 03:17:27;;;;;;;55.67;27.63;;;2.10;99.90;;;;;;5140490;27;20252;-68
2023/03/03 03:19:53;;;;;;;62.73;29.67;;;2.00;99.90;;;;;;5140865;27;20166;-68
2023/03/03 03:22:18;;;;;;;60.47;30.00;;;2.00;99.90;;;;;;5140448;27;20518;-68
2023/03/03 03:24:44;;;;;;;62.10;27.60;;;2.00;99.90;;;;;;5140795;27;20210;-68
2023/03/03 03:27:09;;;;;;;62.10;29.03;;;2.00;99.90;;;;;;5140637;27;20170;-67
2023/03/03 03:29:35;;;;;;;59.33;30.20;;;2.00;99.90;;;;;;5140803;27;20170;-68
2023/03/03 03:32:01;;;;;;;54.53;27.47;;;2.10;99.90;;;;;;5140159;27;20552;-68
2023/03/03 03:34:26;;;;;;;60.27;31.10;;;2.00;99.90;;;;;;5140594;27;20230;-68
2023/03/03 03:36:52;;;;;;;62.03;29.90;;;2.00;99.90;;;;;;5140640;27;20166;-67
2023/03/03 03:39:17;;;;;;;63.27;32.70;;;2.00;99.90;;;;;;5140546;27;20181;-67
2023/03/03 03:41:43;;;;;;;59.03;29.60;;;2.00;99.90;;;;;;5140182;27;20186;-67
2023/03/03 03:44:09;;;;;;;62.43;30.13;;;2.00;99.90;;;;;;5140294;27;20209;-67
2023/03/03 03:46:34;;;;;;;58.07;29.67;;;2.00;99.90;;;;;;5140097;27;20239;-68
2023/03/03 03:49:00;;;;;;;57.57;30.70;;;2.00;99.90;;;;;;5140427;27;20200;-68
2023/03/03 03:51:25;;;;;;;54.73;29.70;;;2.00;99.90;;;;;;5140223;27;20174;-67
2023/03/03 03:53:51;;;;;;;59.80;31.30;;;2.10;99.90;;;;;;5140282;27;20223;-67
2023/03/03 03:56:16;;;;;;;57.43;30.37;;;2.20;99.90;;;;;;5140268;27;20167;-68
2023/03/03 03:58:42;;;;;;;55.37;30.23;;;2.30;99.90;;;;;;5140340;27;20588;-68
2023/03/03 04:01:09;;;;;;;56.23;29.47;;;2.40;99.90;;;;;;5139973;27;20181;-68
2023/03/03 04:03:35;;;;;;;54.97;29.67;;;2.50;99.90;;;;;;5139109;27;20277;-67
2023/03/03 04:06:00;;;;;;;57.87;29.57;;;2.50;99.90;;;;;;5136935;27;20254;-67
2023/03/03 04:08:26;;;;;;;50.27;28.10;;;2.40;99.90;;;;;;5136999;27;20176;-68
2023/03/03 04:10:51;;;;;;;49.90;26.47;;;2.40;99.90;;;;;;5137053;27;20244;-67
2023/03/03 04:13:17;;;;;;;52.00;27.70;;;2.30;99.90;;;;;;5136825;27;20167;-67
2023/03/03 04:15:43;;;;;;;52.70;28.10;;;2.20;99.90;;;;;;5136556;27;20544;-68
2023/03/03 04:18:08;;;;;;;50.57;27.47;;;2.20;99.90;;;;;;5136803;27;20690;-68
2023/03/03 04:20:34;;;;;;;52.57;26.20;;;2.20;99.90;;;;;;5136602;27;20167;-68
2023/03/03 04:23:00;;;;;;;51.33;26.37;;;2.00;99.90;;;;;;5136424;27;20638;-67
2023/03/03 04:25:26;;;;;;;56.13;28.67;;;2.00;99.90;;;;;;5136378;27;20258;-67
2023/03/03 04:27:51;;;;;;;51.43;27.60;;;2.00;99.90;;;;;;5136620;27;20163;-67
2023/03/03 04:30:17;;;;;;;51.90;26.20;;;2.00;99.90;;;;;;5136335;27;20247;-67
2023/03/03 04:32:43;;;;;;;39.40;17.43;;;1.90;99.90;;;;;;5136568;27;20186;-67
2023/03/03 04:35:10;;;;;;;56.70;28.23;;;1.70;99.90;;;;;;5136196;27;20167;-67
2023/03/03 04:37:37;;;;;;;52.60;27.00;;;1.80;99.90;;;;;;5136429;27;20174;-68
2023/03/03 04:40:08;;;;;;;52.13;25.10;;;1.70;99.90;;;;;;5136216;27;20185;-68
2023/03/03 04:42:34;;;;;;;53.27;28.00;;;1.60;99.90;;;;;;5135747;27;20265;-68
2023/03/03 04:44:59;;;;;;;55.07;28.43;;;1.60;99.90;;;;;;5136136;27;20216;-67
2023/03/03 04:47:25;;;;;;;51.93;25.13;;;1.60;99.90;;;;;;5136213;27;20531;-68
2023/03/03 04:49:51;;;;;;;54.50;28.10;;;1.60;99.90;;;;;;5136142;27;20170;-68
2023/03/03 04:52:17;;;;;;;53.00;27.07;;;1.60;99.90;;;;;;5135715;27;20571;-68
2023/03/03 04:54:42;;;;;;;53.43;26.43;;;1.60;99.90;;;;;;5135626;27;20178;-68
2023/03/03 04:57:08;;;;;;;55.27;26.33;;;1.40;99.90;;;;;;5135962;27;20175;-68
2023/03/03 04:59:34;;;;;;;58.17;27.43;;;1.40;99.90;;;;;;5135731;27;20186;-68
2023/03/03 05:02:00;;;;;;;54.63;28.13;;;1.50;99.90;;;;;;5135602;27;20769;-68
2023/03/03 05:04:25;;;;;;;57.70;29.40;;;1.50;99.90;;;;;;5135725;27;20214;-69
2023/03/03 05:06:51;;;;;;;57.27;26.83;;;1.40;99.90;;;;;;5135606;27;20193;-69
2023/03/03 05:09:17;;;;;;;53.10;26.33;;;1.40;99.90;;;;;;5135325;27;20177;-67
2023/03/03 05:11:42;;;;;;;56.13;25.73;;;1.40;99.90;;;;;;5135019;27;20257;-67
2023/03/03 05:14:08;;;;;;;55.07;26.13;;;1.40;99.90;;;;;;5135766;27;20177;-68
2023/03/03 05:16:33;;;;;;;61.37;27.70;;;1.30;99.90;;;;;;5135062;27;20598;-67
2023/03/03 05:18:59;;;;;;;63.30;28.17;;;1.30;99.90;;;;;;5135283;27;20230;-68
2023/03/03 05:21:25;;;;;;;60.87;28.03;;;1.30;99.90;;;;;;5135355;27;20170;-68
2023/03/03 05:23:51;;;;;;;66.57;30.17;;;1.30;99.90;;;;;;5134731;27;20308;-68
2023/03/03 05:26:17;;;;;;;59.20;27.33;;;1.30;99.90;;;;;;5134844;27;20188;-68
2023/03/03 05:28:42;;;;;;;62.23;30.93;;;1.30;99.90;;;;;;5135027;27;20598;-68
2023/03/03 05:31:08;;;;;;;65.60;29.43;;;1.40;99.90;;;;;;5135469;27;20208;-68
2023/03/03 05:33:34;;;;;;;55.27;28.57;;;1.40;99.90;;;;;;5134887;27;20224;-68
2023/03/03 05:36:00;;;;;;;64.47;29.63;;;1.40;99.90;;;;;;5134746;27;20174;-68
2023/03/03 05:38:25;;;;;;;62.63;29.63;;;1.40;99.90;;;;;;5134403;27;20718;-68
2023/03/03 05:40:51;;;;;;;54.77;27.10;;;1.30;99.90;;;;;;5134420;27;20252;-68
2023/03/03 05:43:17;;;;;;;61.07;29.97;;;1.40;99.90;;;;;;5134950;27;20688;-67
2023/03/03 05:45:42;;;;;;;57.83;28.17;;;1.40;99.90;;;;;;5134634;27;20206;-67
2023/03/03 05:48:09;;;;;;;54.90;25.70;;;1.40;99.90;;;;;;5134527;27;20182;-68
2023/03/03 05:50:36;;;;;;;57.27;25.37;;;1.30;99.90;;;;;;5134868;27;20269;-67
2023/03/03 05:53:02;;;;;;;54.27;25.90;;;1.40;99.90;;;;;;5134258;27;20165;-67
2023/03/03 05:55:28;;;;;;;52.63;26.37;;;1.40;99.90;;;;;;5134374;27;20186;-68
2023/03/03 05:57:54;;;;;;;51.17;25.13;;;1.30;99.90;;;;;;5134481;27;20238;-68
2023/03/03 06:00:20;;;;;;;45.40;23.43;;;1.30;99.90;;;;;;5134547;27;20265;-68
2023/03/03 06:02:45;;;;;;;48.30;23.07;;;1.20;99.90;;;;;;5134518;27;20239;-68
2023/03/03 06:05:11;;;;;;;43.03;20.80;;;1.20;99.90;;;;;;5134403;27;20212;-67
2023/03/03 06:07:37;;;;;;;45.43;23.07;;;1.20;99.90;;;;;;5134276;27;20541;-68
2023/03/03 06:10:04;;;;;;;49.87;25.27;;;1.20;99.90;;;;;;5133997;27;20173;-69
2023/03/03 06:12:29;;;;;;;48.97;25.27;;;1.10;99.90;;;;;;5134019;27;20176;-68
2023/03/03 06:14:55;;;;;;;44.70;21.23;;;1.20;99.90;;;;;;5133369;27;20238;-68
2023/03/03 06:17:21;;;;;;;52.60;25.60;;;1.20;99.90;;;;;;5133116;27;20174;-68
2023/03/03 06:19:47;;;;;;;50.33;24.90;;;1.20;99.90;;;;;;5134011;27;20169;-69
2023/03/03 06:22:12;;;;;;;40.13;20.43;;;1.20;99.90;;;;;;5133707;27;20210;-68
2023/03/03 06:24:38;;;;;;;39.63;20.00;;;1.20;99.90;;;;;;5133670;27;20213;-68
2023/03/03 06:27:03;;;;;;;46.00;23.30;;;1.30;99.90;;;;;;5132840;27;20193;-68
2023/03/03 06:29:29;;;;;;;41.63;19.73;;;1.30;99.90;;;;;;5134206;27;20620;-68
2023/03/03 06:31:55;;;;;;;48.43;24.60;;;1.30;99.90;;;;;;5134223;27;20208;-68
2023/03/03 06:34:20;;;;;;;37.67;19.73;;;1.20;99.90;;;;;;5133882;27;20589;-69
2023/03/03 06:36:46;;;;;;;55.93;25.93;;;1.10;99.90;;;;;;5133666;27;20186;-67
2023/03/03 06:39:12;;;;;;;48.03;25.73;;;1.10;99.90;;;;;;5133643;27;20187;-67
2023/03/03 06:41:38;;;;;;;51.30;25.57;;;1.10;99.90;;;;;;5133871;27;20265;-68
2023/03/03 06:44:03;;;;;;;40.50;20.67;;;1.20;99.90;;;;;;5133442;27;20200;-69
2023/03/03 06:46:29;;;;;;;44.53;23.43;;;1.30;99.90;;;;;;5132835;27;20170;-68
2023/03/03 06:48:54;;;;;;;46.33;23.93;;;1.30;99.90;;;;;;5133661;27;20257;-68
2023/03/03 06:51:35;;;;;;;50.90;26.60;;;1.30;99.90;;;;;;5133227;28;20205;-68
2023/03/03 06:54:12;;;;;;;47.20;24.33;;;1.30;99.90;;;;;;5133145;28;20173;-68
2023/03/03 06:56:38;;;;;;;44.63;22.40;;;1.40;99.90;;;;;;5133173;28;20180;-68
2023/03/03 06:59:30;;;;;;;41.97;22.97;;;1.50;99.90;;;;;;5133026;28;20214;-69
2023/03/03 07:01:56;;;;;;;46.53;23.80;;;1.40;99.90;;;;;;5128289;28;20235;-67
2023/03/03 07:04:30;;;;;;;45.43;23.93;;;1.50;99.90;;;;;;5133006;28;20220;-68
2023/03/03 07:06:58;;;;;;;48.73;25.93;;;1.50;99.90;;;;;;5132736;28;20617;-68
2023/03/03 07:09:28;;;;;;;49.07;24.80;;;1.40;99.90;;;;;;5132699;28;20173;-67
2023/03/03 07:12:00;;;;;;;46.00;23.03;;;1.30;99.90;;;;;;5133015;28;20180;-69
2023/03/03 07:14:26;;;;;;;31.47;15.73;;;1.40;99.90;;;;;;5133104;28;20257;-68
2023/03/03 07:16:58;;;;;;;45.93;24.23;;;1.40;99.90;;;;;;5133086;28;20299;-69
2023/03/03 07:19:29;;;;;;;42.67;23.70;;;1.50;99.90;;;;;;5103626;28;20178;-68
2023/03/03 07:21:55;;;;;;;41.97;21.77;;;1.50;99.90;;;;;;5104878;28;20259;-68
2023/03/03 07:24:29;;;;;;;39.20;21.73;;;1.40;99.90;;;;;;5111149;28;20614;-67
2023/03/03 07:26:59;;;;;;;44.80;23.37;;;1.40;99.90;;;;;;5092521;28;20173;-69
2023/03/03 07:29:29;;;;;;;45.20;21.47;;;1.40;99.90;;;;;;5107883;28;20646;-69
2023/03/03 07:31:56;;;;;;;44.43;23.80;;;1.40;99.90;;;;;;5079284;28;20522;-70
2023/03/03 07:34:29;;;;;;;42.67;23.43;;;1.40;99.90;;;;;;5100743;28;20178;-68
2023/03/03 07:37:00;;;;;;;44.00;23.93;;;1.40;99.90;;;;;;5116976;28;20232;-69
2023/03/03 07:39:32;;;;;;;40.00;21.50;;;1.50;99.90;;;;;;5097081;28;20176;-68
2023/03/03 07:42:43;;;;;;;40.30;21.67;;;1.60;99.90;;;;;;5108192;28;20642;-67
2023/03/03 07:45:38;;;;;;;38.60;19.83;;;1.70;99.90;;;;;;5097874;28;20209;-70
2023/03/03 07:48:22;;;;;;;37.87;19.77;;;1.50;99.90;;;;;;5039217;28;20235;-68
2023/03/03 07:50:48;;;;;;;47.47;22.47;;;1.60;99.90;;;;;;5040284;28;20189;-69
2023/03/03 07:53:25;;;;;;;44.80;21.90;;;1.50;99.90;;;;;;5048674;28;20289;-70
2023/03/03 07:55:50;;;;;;;42.13;21.90;;;1.60;99.90;;;;;;5036936;28;20203;-70
2023/03/03 07:58:21;;;;;;;45.50;21.53;;;1.60;99.90;;;;;;5043808;28;20213;-70
2023/03/03 08:01:08;;;;;;;46.70;23.20;;;1.60;99.90;;;;;;5045926;28;20211;-68
2023/03/03 08:03:35;;;;;;;45.87;22.73;;;1.60;99.90;;;;;;5035348;28;20181;-68
2023/03/03 08:06:28;;;;;;;42.27;21.53;;;1.70;99.90;;;;;;5049543;28;20224;-68
2023/03/03 08:08:57;;;;;;;36.20;16.20;;;1.70;99.90;;;;;;5052649;28;20192;-68
2023/03/03 08:11:24;;;;;;;44.77;20.83;;;1.70;99.90;;;;;;5027118;28;20207;-68
2023/03/03 08:13:49;;;;;;;37.57;18.77;;;1.70;99.90;;;;;;5013958;28;20280;-71
2023/03/03 08:16:15;;;;;;;46.57;20.97;;;1.60;99.90;;;;;;5039416;28;20656;-69
2023/03/03 08:18:47;;;;;;;43.17;19.60;;;1.50;99.90;;;;;;5042122;28;20200;-68
2023/03/03 08:21:17;;;;;;;39.20;19.90;;;1.40;99.90;;;;;;5030645;28;20181;-67
2023/03/03 08:23:43;;;;;;;39.87;20.30;;;1.50;99.90;;;;;;5052069;28;20221;-69
2023/03/03 08:26:11;;;;;;;42.47;22.33;;;1.50;99.90;;;;;;5112105;28;20171;-69
2023/03/03 08:28:37;;;;;;;42.77;21.83;;;1.50;99.90;;;;;;5114875;28;20192;-69
2023/03/03 08:31:03;;;;;;;38.50;20.90;;;1.60;99.90;;;;;;5108515;28;20543;-68
2023/03/03 08:33:28;;;;;;;38.67;16.93;;;1.60;99.90;;;;;;5099524;28;20280;-69
2023/03/03 08:35:54;;;;;;;34.13;17.10;;;1.60;99.90;;;;;;5103136;28;20182;-69
2023/03/03 08:38:21;;;;;;;36.37;17.37;;;1.60;99.90;;;;;;5106676;28;20268;-69
2023/03/03 08:40:48;;;;;;;40.13;20.33;;;1.60;99.90;;;;;;5098099;28;20181;-67
2023/03/03 08:43:15;;;;;;;31.60;15.83;;;1.60;99.90;;;;;;5110905;28;20187;-69
2023/03/03 08:45:43;;;;;;;39.47;19.60;;;1.60;99.90;;;;;;5101240;28;20221;-69
2023/03/03 08:48:09;;;;;;;36.20;19.93;;;1.60;99.90;;;;;;5103038;28;20184;-67
2023/03/03 08:50:35;;;;;;;39.63;21.27;;;1.60;99.90;;;;;;5107421;28;20181;-69
2023/03/03 08:53:00;;;;;;;35.63;17.53;;;1.80;99.90;;;;;;5099421;28;20513;-69
2023/03/03 08:55:26;;;;;;;39.53;17.57;;;1.80;99.90;;;;;;5099198;28;20179;-69
2023/03/03 08:57:52;;;;;;;39.80;19.73;;;1.80;99.90;;;;;;5114067;28;20174;-70
2023/03/03 09:00:18;;;;;;;38.87;19.13;;;1.80;99.90;;;;;;5101584;28;20211;-68
2023/03/03 09:02:44;;;;;;;35.20;18.77;;;1.80;99.90;;;;;;5109567;28;20658;-69
2023/03/03 09:05:11;;;;;;;33.73;16.47;;;1.80;99.90;;;;;;5096982;28;20218;-69
2023/03/03 09:07:37;;;;;;;41.00;19.43;;;1.70;99.90;;;;;;5106682;28;20297;-69
2023/03/03 09:10:03;;;;;;;37.70;19.13;;;1.80;99.90;;;;;;5103598;28;20171;-67
2023/03/03 09:12:39;;;;;;;36.40;18.67;;;1.70;99.90;;;;;;5099701;28;20172;-69
2023/03/03 09:15:29;;;;;;;34.30;18.13;;;1.80;99.90;;;;;;5110146;28;20182;-67
2023/03/03 09:18:23;;;;;;;34.57;18.53;;;1.90;99.90;;;;;;5081229;28;20199;-69
2023/03/03 09:20:51;;;;;;;34.50;18.13;;;2.00;99.90;;;;;;5110064;28;20175;-69
2023/03/03 09:23:33;;;;;;;35.00;18.63;;;2.00;99.90;;;;;;5096758;28;20210;-68
2023/03/03 09:26:36;;;;;;;34.33;17.30;;;1.90;99.90;;;;;;5102726;28;20210;-68
2023/03/03 09:29:14;;;;;;;29.47;13.47;;;2.00;99.90;;;;;;5111664;28;20277;-70
2023/03/03 09:31:44;;;;;;;36.27;18.03;;;1.90;99.90;;;;;;5106399;28;20217;-69
2023/03/03 09:34:35;;;;;;;37.80;17.13;;;2.00;99.90;;;;;;5103857;28;20192;-68
2023/03/03 09:37:14;;;;;;;39.03;18.87;;;2.00;99.90;;;;;;5096227;28;20683;-69
2023/03/03 09:39:39;;;;;;;33.13;17.83;;;2.20;99.90;;;;;;5106294;28;20180;-68
2023/03/03 09:42:24;;;;;;;40.77;17.87;;;2.30;99.90;;;;;;5092008;28;20658;-68
2023/03/03 09:44:59;;;;;;;33.57;16.57;;;2.30;99.90;;;;;;5093283;28;20294;-69
2023/03/03 09:47:53;;;;;;;33.40;15.90;;;2.20;99.90;;;;;;5097470;28;20171;-68
2023/03/03 09:50:22;;;;;;;29.93;15.23;;;2.20;99.90;;;;;;5100927;28;20627;-69
2023/03/03 09:53:23;;;;;;;26.93;12.37;;;2.10;99.90;;;;;;5100522;28;20203;-70
2023/03/03 09:56:11;;;;;;;32.27;15.07;;;2.10;99.90;;;;;;5101257;28;20220;-68
2023/03/03 09:58:58;;;;;;;36.97;17.77;;;2.10;99.90;;;;;;5098007;28;20186;-69
2023/03/03 10:01:49;;;;;;;32.60;14.77;;;2.20;99.90;;;;;;5097051;28;20275;-68
2023/03/03 10:04:37;;;;;;;34.00;17.47;;;2.40;99.90;;;;;;5101389;28;20345;-69
2023/03/03 10:07:09;;;;;;;23.53;10.43;;;2.50;99.90;;;;;;5109264;28;20723;-67
2023/03/03 10:09:52;;;;;;;34.03;17.20;;;2.50;99.90;;;;;;5098549;28;20179;-69
2023/03/03 10:12:40;;;;;;;39.90;16.47;;;2.50;99.90;;;;;;5100533;28;20247;-68
2023/03/03 10:15:40;;;;;;;33.17;16.97;;;2.60;99.90;;;;;;5109595;28;20179;-68
2023/03/03 10:18:25;;;;;;;35.10;18.20;;;2.80;99.90;;;;;;5102511;28;20277;-68
2023/03/03 10:21:10;;;;;;;30.43;15.20;;;2.80;99.90;;;;;;5096046;28;20263;-69
2023/03/03 10:24:00;;;;;;;35.67;17.43;;;2.90;99.90;;;;;;5106260;28;20678;-68
2023/03/03 10:26:41;;;;;;;28.97;13.47;;;3.00;99.90;;;;;;5105283;28;20179;-70
2023/03/03 10:29:28;;;;;;;30.43;15.57;;;2.90;99.90;;;;;;5095233;28;20199;-67
2023/03/03 10:32:19;;;;;;;29.27;12.60;;;2.80;99.90;;;;;;5100538;28;20531;-67
2023/03/03 10:34:48;;;;;;;35.73;17.03;;;2.80;99.90;;;;;;5112314;28;20186;-69
2023/03/03 10:37:48;;;;;;;32.60;16.30;;;2.90;99.90;;;;;;5096012;28;20207;-68
2023/03/03 10:40:31;;;;;;;34.80;16.53;;;3.00;99.90;;;;;;5100055;28;20240;-69
2023/03/03 10:43:03;;;;;;;37.40;18.13;;;3.20;99.90;;;;;;5108812;28;20210;-69
2023/03/03 10:45:49;;;;;;;26.90;12.80;;;3.40;99.90;;;;;;5097256;28;20214;-68
2023/03/03 10:48:50;;;;;;;28.57;14.97;;;3.30;99.90;;;;;;5099290;28;20178;-69
2023/03/03 10:51:15;;;;;;;38.03;20.35;;;3.30;99.90;;;;;;5094968;28;20388;-68
2023/03/03 10:54:23;;;;;;;22.43;10.83;;;3.40;99.90;;;;;;5105220;28;20180;-69
2023/03/03 10:57:11;;;;;;;29.40;15.60;;;3.40;99.90;;;;;;5108601;28;20175;-69
2023/03/03 11:00:04;;;;;;;32.93;17.53;;;3.50;99.90;;;;;;5098271;28;20175;-68
2023/03/03 11:03:03;;;;;;;32.60;16.70;;;3.80;99.90;;;;;;5097192;28;20195;-69
2023/03/03 11:05:40;;;;;;;31.83;18.47;;;3.80;99.90;;;;;;5091294;28;20211;-67
2023/03/03 11:08:16;;;;;;;36.37;16.27;;;3.80;99.90;;;;;;5091831;28;20207;-68
2023/03/03 11:10:59;;;;;;;30.70;16.73;;;4.00;99.90;;;;;;5107043;28;20223;-68
2023/03/03 11:13:38;;;;;;;31.73;16.50;;;4.10;99.90;;;;;;5097672;28;20167;-67
2023/03/03 11:16:35;;;;;;;35.97;16.97;;;4.00;99.90;;;;;;5105043;28;20186;-69
2023/03/03 11:19:24;;;;;;;33.23;17.60;;;4.10;99.90;;;;;;5112652;28;20276;-68
2023/03/03 11:22:16;;;;;;;27.27;15.23;;;4.10;99.90;;;;;;5104072;28;20208;-66
2023/03/03 11:25:19;;;;;;;32.23;16.40;;;4.30;99.90;;;;;;5094599;28;20531;-67
2023/03/03 11:27:59;;;;;;;28.07;14.13;;;4.40;99.90;;;;;;5095530;28;20176;-67
2023/03/03 11:30:34;;;;;;;31.03;14.73;;;4.50;99.90;;;;;;5095342;28;20171;-67
2023/03/03 11:33:13;;;;;;;32.60;17.23;;;4.60;99.90;;;;;;5111384;28;20178;-69
2023/03/03 11:35:51;;;;;;;30.30;16.83;;;4.60;99.90;;;;;;5102757;28;20171;-68
2023/03/03 11:38:41;;;;;;;31.67;16.20;;;4.80;99.90;;;;;;5116100;28;20190;-68
2023/03/03 11:41:13;;;;;;;29.27;15.63;;;5.00;99.90;;;;;;5095604;28;20186;-69
2023/03/03 11:43:50;;;;;;;29.07;15.10;;;4.90;99.90;;;;;;5101753;28;20166;-67
2023/03/03 11:46:21;;;;;;;31.17;14.87;;;4.90;99.90;;;;;;5114944;28;20191;-69
2023/03/03 11:49:10;;;;;;;28.00;14.30;;;5.00;99.90;;;;;;5099062;28;20178;-67
2023/03/03 11:52:06;;;;;;;28.60;15.40;;;4.90;99.90;;;;;;5101274;28;20217;-67
2023/03/03 11:54:55;;;;;;;31.60;15.10;;;4.60;99.90;;;;;;5100056;28;20190;-67
2023/03/03 11:57:38;;;;;;;28.57;15.07;;;4.80;99.90;;;;;;5099515;28;20227;-68
2023/03/03 12:00:22;;;;;;;30.37;15.87;;;4.80;99.90;;;;;;5105038;28;20164;-68
2023/03/03 12:03:12;;;;;;;28.20;15.63;;;4.80;99.90;;;;;;5111508;28;20197;-66
2023/03/03 12:05:55;;;;;;;28.93;15.07;;;5.10;99.90;;;;;;5093760;28;20211;-67
2023/03/03 12:08:45;;;;;;;29.63;14.87;;;5.40;99.90;;;;;;5094593;28;20316;-68
2023/03/03 12:11:45;;;;;;;27.13;15.80;;;5.60;99.90;;;;;;5111512;28;20205;-68
2023/03/03 12:14:31;;;;;;;27.33;15.10;;;5.80;99.90;;;;;;5105643;28;20228;-67
2023/03/03 12:17:04;;;;;;;26.47;14.73;;;5.50;99.90;;;;;;5098438;28;20183;-68
2023/03/03 12:19:47;;;;;;;27.67;14.50;;;5.60;99.90;;;;;;5109302;28;20520;-68
2023/03/03 12:22:22;;;;;;;26.87;15.23;;;5.80;99.90;;;;;;5105795;28;20214;-68
2023/03/03 12:25:27;;;;;;;22.43;12.80;;;5.70;99.90;;;;;;5096790;28;20207;-66
2023/03/03 12:28:06;;;;;;;26.57;14.53;;;5.60;99.90;;;;;;5084808;28;20246;-67
2023/03/03 12:30:46;;;;;;;25.53;12.73;;;5.40;99.90;;;;;;5099946;28;20217;-68
2023/03/03 12:33:20;;;;;;;21.07;12.30;;;5.40;99.90;;;;;;5111667;28;20171;-69
2023/03/03 12:35:52;;;;;;;23.95;16.15;;;5.20;99.90;;;;;;5101742;28;21210;-67
2023/03/03 12:38:39;;;;;;;24.10;13.73;;;5.10;99.90;;;;;;5101147;28;20251;-66
2023/03/03 12:41:18;;;;;;;21.37;11.77;;;5.40;99.90;;;;;;5095154;28;20631;-67
2023/03/03 12:43:57;;;;;;;21.40;13.03;;;5.20;99.90;;;;;;5106748;28;20741;-68
2023/03/03 12:46:52;;;;;;;27.30;14.10;;;5.20;99.90;;;;;;5107141;28;20182;-68
2023/03/03 12:49:18;;;;;;;23.83;11.03;;;5.40;99.90;;;;;;5097706;28;20182;-67
2023/03/03 12:52:08;;;;;;;24.10;13.40;;;5.20;99.90;;;;;;5106585;28;20665;-68
2023/03/03 12:54:43;;;;;;;23.50;13.23;;;5.30;99.90;;;;;;5107914;28;20678;-67
2023/03/03 12:57:20;;;;;;;21.90;11.37;;;5.40;99.90;;;;;;5095670;28;20630;-67
2023/03/03 13:00:12;;;;;;;24.47;12.87;;;5.60;99.90;;;;;;5106221;28;20217;-68
2023/03/03 13:02:59;;;;;;;21.20;12.17;;;5.80;99.90;;;;;;5108524;28;20694;-68
2023/03/03 13:05:52;;;;;;;24.33;13.77;;;5.80;99.90;;;;;;5098726;28;20209;-68